createdAt,value
2022-09-30T00:01:27.471Z,1.70
2022-09-30T00:03:54.666Z,1.53
2022-09-30T00:06:21.570Z,1.37
2022-09-30T00:08:48.155Z,0.93
2022-09-30T00:11:17.826Z,1.37
2022-09-30T00:13:46.536Z,1.23
2022-09-30T00:16:15.164Z,1.50
2022-09-30T00:18:43.149Z,1.50
2022-09-30T00:21:11.449Z,1.73
2022-09-30T00:23:39.036Z,1.50
2022-09-30T00:26:12.861Z,1.30
2022-09-30T00:28:40.682Z,0.83
2022-09-30T00:31:11.332Z,1.67
2022-09-30T00:33:38.150Z,1.20
2022-09-30T00:36:05.647Z,1.67
2022-09-30T00:38:32.918Z,1.60
2022-09-30T00:41:01.870Z,1.63
2022-09-30T00:43:53.390Z,1.73
2022-09-30T00:46:40.930Z,1.33
2022-09-30T00:49:19.021Z,1.20
2022-09-30T00:51:52.295Z,1.40
2022-09-30T00:54:26.277Z,1.60
2022-09-30T00:56:56.877Z,1.30
2022-09-30T00:59:27.485Z,1.40
2022-09-30T01:01:54.972Z,1.63
2022-09-30T01:04:24.691Z,1.63
2022-09-30T01:06:51.590Z,1.83
2022-09-30T01:09:18.968Z,1.27
2022-09-30T01:11:46.540Z,1.67
2022-09-30T01:14:19.982Z,1.90
2022-09-30T01:17:01.411Z,1.90
2022-09-30T01:19:31.105Z,1.43
2022-09-30T01:22:25.700Z,1.57
2022-09-30T01:25:17.478Z,1.47
2022-09-30T01:27:59.268Z,1.60
2022-09-30T01:30:44.842Z,1.40
2022-09-30T01:33:20.815Z,1.57
2022-09-30T01:36:02.214Z,1.63
2022-09-30T01:38:37.423Z,1.30
2022-09-30T01:41:15.750Z,1.70
2022-09-30T01:43:54.418Z,1.27
2022-09-30T01:46:38.612Z,1.57
2022-09-30T01:49:18.212Z,1.27
2022-09-30T01:51:55.695Z,1.17
2022-09-30T01:54:40.335Z,1.47
2022-09-30T01:57:13.269Z,1.47
2022-09-30T01:59:48.503Z,1.03
2022-09-30T02:02:20.894Z,1.40
2022-09-30T02:04:54.036Z,1.53
2022-09-30T02:07:26.900Z,1.20
2022-09-30T02:10:00.216Z,1.10
2022-09-30T02:12:30.290Z,1.30
2022-09-30T02:15:23.237Z,1.00
2022-09-30T02:18:02.693Z,1.57
2022-09-30T02:20:36.889Z,1.47
2022-09-30T02:23:15.979Z,1.27
2022-09-30T02:25:50.514Z,0.90
2022-09-30T02:28:27.209Z,1.70
2022-09-30T02:31:00.064Z,1.23
2022-09-30T02:33:38.278Z,1.27
2022-09-30T02:36:21.076Z,1.30
2022-09-30T02:38:55.531Z,1.23
2022-09-30T02:41:26.517Z,1.13
2022-09-30T02:43:55.676Z,1.10
2022-09-30T02:46:28.171Z,1.57
2022-09-30T02:49:20.331Z,1.47
2022-09-30T02:52:05.539Z,1.20
2022-09-30T02:54:49.143Z,1.47
2022-09-30T02:57:47.175Z,1.33
2022-09-30T03:00:14.503Z,0.97
2022-09-30T03:02:42.019Z,1.13
2022-09-30T03:05:09.936Z,1.20
2022-09-30T03:07:37.811Z,1.10
2022-09-30T03:10:16.274Z,1.23
2022-09-30T03:13:00.823Z,0.90
2022-09-30T03:16:01.374Z,1.10
2022-09-30T03:19:08.534Z,0.93
2022-09-30T03:21:44.347Z,1.00
2022-09-30T03:24:29.213Z,1.00
2022-09-30T03:27:12.309Z,0.87
2022-09-30T03:29:45.336Z,1.30
2022-09-30T03:32:27.385Z,1.40
2022-09-30T03:35:10.602Z,1.17
2022-09-30T03:37:51.601Z,1.70
2022-09-30T03:40:21.202Z,1.47
2022-09-30T03:42:58.148Z,1.40
2022-09-30T03:45:37.163Z,1.27
2022-09-30T03:48:08.938Z,1.03
2022-09-30T03:50:37.997Z,1.10
2022-09-30T03:53:11.005Z,1.00
2022-09-30T03:55:47.902Z,1.33
2022-09-30T03:58:15.696Z,0.90
2022-09-30T04:00:48.693Z,1.00
2022-09-30T04:03:16.024Z,1.43
2022-09-30T04:05:42.884Z,1.50
2022-09-30T04:08:10.122Z,1.00
2022-09-30T04:10:36.779Z,1.13
2022-09-30T04:13:03.483Z,1.13
2022-09-30T04:15:30.042Z,1.07
2022-09-30T04:17:56.618Z,1.10
2022-09-30T04:20:23.189Z,1.00
2022-09-30T04:22:49.805Z,1.57
2022-09-30T04:25:16.562Z,1.30
2022-09-30T04:27:43.185Z,1.50
2022-09-30T04:30:10.394Z,1.00
2022-09-30T04:32:36.971Z,1.30
2022-09-30T04:35:04.036Z,1.23
2022-09-30T04:37:30.708Z,1.23
2022-09-30T04:39:57.775Z,1.30
2022-09-30T04:42:24.457Z,1.57
2022-09-30T04:44:51.270Z,1.97
2022-09-30T04:47:17.837Z,1.10
2022-09-30T04:49:44.368Z,1.53
2022-09-30T04:52:10.943Z,1.27
2022-09-30T04:54:37.526Z,1.17
2022-09-30T04:57:04.186Z,1.03
2022-09-30T04:59:31.074Z,0.83
2022-09-30T05:01:57.718Z,1.30
2022-09-30T05:04:24.355Z,1.10
2022-09-30T05:06:51.035Z,1.00
2022-09-30T05:09:17.641Z,1.40
2022-09-30T05:11:44.267Z,1.00
2022-09-30T05:14:10.857Z,1.17
2022-09-30T05:16:37.780Z,1.17
2022-09-30T05:19:04.559Z,1.07
2022-09-30T05:21:31.195Z,1.10
2022-09-30T05:23:58.623Z,1.13
2022-09-30T05:26:25.238Z,0.93
2022-09-30T05:28:51.894Z,1.07
2022-09-30T05:31:21.070Z,1.33
2022-09-30T05:33:48.049Z,1.03
2022-09-30T05:36:16.366Z,1.63
2022-09-30T05:38:43.102Z,1.07
2022-09-30T05:41:11.679Z,1.03
2022-09-30T05:43:40.073Z,1.83
2022-09-30T05:46:06.888Z,0.83
2022-09-30T05:48:34.757Z,1.07
2022-09-30T05:51:01.812Z,1.23
2022-09-30T05:53:29.511Z,1.40
2022-09-30T05:55:56.137Z,1.20
2022-09-30T05:58:23.150Z,0.77
2022-09-30T06:00:50.444Z,1.60
2022-09-30T06:03:18.806Z,1.30
2022-09-30T06:05:46.042Z,1.40
2022-09-30T06:08:13.820Z,1.20
2022-09-30T06:10:42.489Z,1.23
2022-09-30T06:13:09.158Z,1.63
2022-09-30T06:15:38.153Z,1.27
2022-09-30T06:18:05.157Z,1.00
2022-09-30T06:20:32.348Z,1.47
2022-09-30T06:23:00.611Z,1.40
2022-09-30T06:25:31.339Z,1.23
2022-09-30T06:27:58.608Z,1.20
2022-09-30T06:30:25.509Z,1.37
2022-09-30T06:32:54.210Z,1.40
2022-09-30T06:35:24.155Z,1.90
2022-09-30T06:37:51.962Z,1.10
2022-09-30T06:40:21.180Z,1.03
2022-09-30T06:42:48.651Z,1.80
2022-09-30T06:45:26.403Z,1.47
2022-09-30T06:48:00.566Z,2.33
2022-09-30T06:50:27.740Z,1.43
2022-09-30T06:52:59.322Z,1.27
2022-09-30T06:55:27.284Z,1.80
2022-09-30T06:57:55.479Z,1.33
2022-09-30T07:00:22.959Z,1.50
2022-09-30T07:02:49.923Z,1.90
2022-09-30T07:05:17.538Z,1.87
2022-09-30T07:07:44.247Z,2.20
2022-09-30T07:10:11.533Z,2.03
2022-09-30T07:12:38.130Z,1.83
2022-09-30T07:15:05.151Z,2.20
2022-09-30T07:17:32.006Z,1.53
2022-09-30T07:19:59.568Z,2.10
2022-09-30T07:22:30.128Z,1.77
2022-09-30T07:24:58.433Z,2.10
2022-09-30T07:27:29.090Z,2.80
2022-09-30T07:30:17.093Z,2.13
2022-09-30T07:32:43.290Z,1.70
2022-09-30T07:35:09.870Z,1.80
2022-09-30T07:37:36.529Z,1.37
2022-09-30T07:40:07.817Z,2.17
2022-09-30T07:42:39.392Z,2.20
2022-09-30T07:45:06.409Z,1.97
2022-09-30T07:47:33.042Z,2.03
2022-09-30T07:50:00.590Z,1.80
2022-09-30T07:52:27.353Z,2.00
2022-09-30T07:54:53.954Z,1.83
2022-09-30T07:57:21.754Z,1.40
2022-09-30T07:59:48.304Z,1.70
2022-09-30T08:02:17.509Z,1.63
2022-09-30T08:04:44.943Z,1.33
2022-09-30T08:07:13.317Z,0.87
2022-09-30T08:09:39.976Z,1.42
2022-09-30T08:12:06.624Z,1.13
2022-09-30T08:14:33.323Z,1.35
2022-09-30T08:17:00.735Z,0.90
2022-09-30T08:19:29.464Z,1.30
2022-09-30T08:21:56.633Z,0.90
2022-09-30T08:24:24.665Z,1.45
2022-09-30T08:26:52.638Z,0.80
2022-09-30T08:29:35.777Z,1.10
2022-09-30T08:32:06.268Z,1.02
2022-09-30T08:34:35.817Z,1.45
2022-09-30T08:37:08.365Z,1.00
2022-09-30T08:39:37.025Z,1.05
2022-09-30T08:42:25.442Z,0.98
2022-09-30T08:45:10.566Z,1.25
2022-09-30T08:47:43.479Z,0.90
2022-09-30T08:50:32.691Z,1.88
2022-09-30T08:53:27.475Z,0.80
2022-09-30T08:55:58.107Z,1.00
2022-09-30T08:58:43.968Z,0.80
2022-09-30T09:01:19.925Z,0.73
2022-09-30T09:03:47.047Z,0.70
2022-09-30T09:06:54.909Z,0.65
2022-09-30T09:09:35.327Z,0.73
2022-09-30T09:12:12.357Z,1.05
2022-09-30T09:15:09.289Z,1.08
2022-09-30T09:18:18.247Z,1.00
2022-09-30T09:20:56.332Z,0.70
2022-09-30T09:23:23.922Z,0.70
2022-09-30T09:25:54.179Z,0.73
2022-09-30T09:28:29.652Z,0.68
2022-09-30T09:30:59.186Z,0.57
2022-09-30T09:33:32.334Z,0.60
2022-09-30T09:36:14.075Z,0.98
2022-09-30T09:38:58.308Z,0.63
2022-09-30T09:41:33.453Z,0.82
2022-09-30T09:44:19.344Z,0.55
2022-09-30T09:46:55.649Z,0.52
2022-09-30T09:49:29.285Z,0.75
2022-09-30T09:52:13.821Z,0.52
2022-09-30T09:54:45.933Z,0.52
2022-09-30T09:57:25.732Z,0.73
2022-09-30T09:59:58.568Z,0.50
2022-09-30T10:02:31.738Z,0.60
2022-09-30T10:05:03.882Z,0.50
2022-09-30T10:07:34.384Z,0.43
2022-09-30T10:10:23.523Z,0.60
2022-09-30T10:12:50.731Z,0.45
2022-09-30T10:15:26.507Z,0.45
2022-09-30T10:17:58.313Z,0.90
2022-09-30T10:20:32.096Z,0.50
2022-09-30T10:23:19.541Z,0.40
2022-09-30T10:26:13.989Z,0.40
2022-09-30T10:28:52.479Z,0.40
2022-09-30T10:31:50.950Z,0.50
2022-09-30T10:34:23.527Z,0.68
2022-09-30T10:36:50.927Z,0.43
2022-09-30T10:39:24.098Z,0.20
2022-09-30T10:42:08.711Z,0.40
2022-09-30T10:44:43.708Z,0.30
2022-09-30T10:47:15.518Z,0.30
2022-09-30T10:49:56.872Z,0.47
2022-09-30T10:52:34.716Z,0.28
2022-09-30T10:55:13.272Z,0.55
2022-09-30T10:57:42.444Z,0.40
2022-09-30T11:00:19.613Z,0.30
2022-09-30T11:03:03.834Z,0.98
2022-09-30T11:05:35.453Z,0.50
2022-09-30T11:08:05.135Z,0.40
2022-09-30T11:10:39.614Z,0.47
2022-09-30T11:13:18.158Z,0.25
2022-09-30T11:16:00.890Z,0.30
2022-09-30T11:18:40.960Z,0.40
2022-09-30T11:21:22.221Z,1.10
2022-09-30T11:24:14.486Z,0.40
2022-09-30T11:26:59.046Z,0.30
2022-09-30T11:29:50.923Z,0.50
2022-09-30T11:32:25.781Z,0.60
2022-09-30T11:35:07.641Z,0.40
2022-09-30T11:37:52.973Z,0.50
2022-09-30T11:40:34.805Z,0.40
2022-09-30T11:43:13.777Z,0.30
2022-09-30T11:46:11.290Z,0.60
2022-09-30T11:49:00.129Z,0.70
2022-09-30T11:51:29.720Z,0.28
2022-09-30T11:54:14.965Z,0.40
2022-09-30T11:56:54.330Z,0.30
2022-09-30T11:59:34.405Z,0.52
2022-09-30T12:02:04.479Z,0.50
2022-09-30T12:04:37.019Z,0.40
2022-09-30T12:07:22.685Z,0.60
2022-09-30T12:10:01.401Z,0.85
2022-09-30T12:12:28.035Z,0.50
2022-09-30T12:15:05.187Z,0.47
2022-09-30T12:17:43.183Z,1.05
2022-09-30T12:20:18.811Z,0.47
2022-09-30T12:22:48.061Z,0.80
2022-09-30T12:25:22.334Z,0.43
2022-09-30T12:28:24.021Z,0.30
2022-09-30T12:31:04.103Z,0.30
2022-09-30T12:33:46.333Z,0.38
2022-09-30T12:36:19.702Z,0.38
2022-09-30T12:38:46.191Z,0.50
2022-09-30T12:41:27.108Z,0.40
2022-09-30T12:44:12.342Z,0.32
2022-09-30T12:46:50.000Z,0.50
2022-09-30T12:49:23.156Z,0.65
2022-09-30T12:51:55.958Z,0.50
2022-09-30T12:54:33.812Z,0.50
2022-09-30T12:57:04.429Z,0.30
2022-09-30T12:59:34.939Z,0.45
2022-09-30T13:02:04.449Z,0.38
2022-09-30T13:04:33.492Z,0.47
2022-09-30T13:06:59.991Z,0.30
2022-09-30T13:09:37.379Z,0.60
2022-09-30T13:12:03.962Z,0.50
2022-09-30T13:14:44.052Z,0.60
2022-09-30T13:17:10.567Z,0.30
2022-09-30T13:19:40.490Z,0.63
2022-09-30T13:22:19.878Z,0.30
2022-09-30T13:25:07.688Z,0.40
2022-09-30T13:27:40.422Z,0.30
2022-09-30T13:30:16.237Z,0.40
2022-09-30T13:32:48.147Z,0.57
2022-09-30T13:35:51.468Z,0.30
2022-09-30T13:38:18.634Z,0.50
2022-09-30T13:41:02.923Z,0.75
2022-09-30T13:44:03.669Z,0.60
2022-09-30T13:46:43.509Z,0.50
2022-09-30T13:49:25.005Z,0.40
2022-09-30T13:51:53.585Z,0.38
2022-09-30T13:54:46.203Z,0.43
2022-09-30T13:57:24.198Z,0.40
2022-09-30T14:00:08.734Z,1.02
2022-09-30T14:03:04.151Z,0.40
2022-09-30T14:05:40.293Z,0.30
2022-09-30T14:08:19.406Z,0.40
2022-09-30T14:11:06.006Z,0.43
2022-09-30T14:13:38.552Z,0.70
2022-09-30T14:16:14.214Z,0.30
2022-09-30T14:19:06.343Z,1.23
2022-09-30T14:21:47.444Z,0.40
2022-09-30T14:24:24.122Z,0.40
2022-09-30T14:27:02.859Z,1.90
2022-09-30T14:29:44.031Z,1.10
2022-09-30T14:32:26.319Z,2.28
2022-09-30T14:34:53.688Z,0.50
2022-09-30T14:37:32.173Z,0.90
2022-09-30T14:39:59.563Z,1.05
2022-09-30T14:42:36.919Z,0.55
2022-09-30T14:45:06.854Z,0.52
2022-09-30T14:47:46.227Z,0.60
2022-09-30T14:50:24.521Z,0.52
2022-09-30T14:52:57.157Z,0.50
2022-09-30T14:55:30.585Z,0.50
2022-09-30T14:58:26.112Z,0.52
2022-09-30T15:01:15.519Z,1.00
2022-09-30T15:03:47.789Z,0.60
2022-09-30T15:06:27.602Z,0.40
2022-09-30T15:09:06.805Z,0.55
2022-09-30T15:11:38.801Z,0.68
2022-09-30T15:14:20.569Z,0.60
2022-09-30T15:16:50.320Z,0.60
2022-09-30T15:19:37.018Z,0.82
2022-09-30T15:22:07.159Z,0.52
2022-09-30T15:24:36.639Z,0.43
2022-09-30T15:27:04.058Z,0.50
2022-09-30T15:29:30.838Z,0.50
2022-09-30T15:32:04.939Z,0.30
2022-09-30T15:34:31.818Z,0.40
2022-09-30T15:37:06.837Z,0.63
2022-09-30T15:39:57.314Z,0.60
2022-09-30T15:42:53.682Z,0.38
2022-09-30T15:45:35.495Z,0.90
2022-09-30T15:48:25.873Z,0.60
2022-09-30T15:50:55.963Z,0.57
2022-09-30T15:53:25.955Z,0.50
2022-09-30T15:55:58.028Z,0.80
2022-09-30T15:58:41.614Z,0.55
2022-09-30T16:01:11.113Z,0.50
2022-09-30T16:03:37.883Z,0.55
2022-09-30T16:06:13.896Z,0.70
2022-09-30T16:08:47.154Z,0.40
2022-09-30T16:11:20.807Z,0.40
2022-09-30T16:13:48.782Z,0.60
2022-09-30T16:16:24.640Z,0.60
2022-09-30T16:18:53.698Z,0.65
2022-09-30T16:21:30.777Z,0.52
2022-09-30T16:23:57.833Z,0.70
2022-09-30T16:26:30.134Z,0.60
2022-09-30T16:28:56.969Z,1.10
2022-09-30T16:31:24.354Z,1.45
2022-09-30T16:33:51.060Z,1.00
2022-09-30T16:36:17.739Z,1.00
2022-09-30T16:38:44.426Z,0.60
2022-09-30T16:41:14.342Z,1.08
2022-09-30T16:43:41.144Z,0.80
2022-09-30T16:46:09.178Z,0.60
2022-09-30T16:48:36.153Z,0.87
2022-09-30T16:51:15.431Z,0.53
2022-09-30T16:53:42.077Z,1.17
2022-09-30T16:56:19.666Z,0.90
2022-09-30T16:58:47.252Z,0.70
2022-09-30T17:01:19.866Z,0.60
2022-09-30T17:03:46.889Z,0.43
2022-09-30T17:06:17.943Z,0.40
2022-09-30T17:08:45.365Z,0.40
2022-09-30T17:11:12.037Z,0.70
2022-09-30T17:13:38.783Z,0.47
2022-09-30T17:16:05.604Z,0.50
2022-09-30T17:18:32.257Z,0.40
2022-09-30T17:21:00.802Z,0.53
2022-09-30T17:23:27.551Z,0.40
2022-09-30T17:25:54.898Z,0.80
2022-09-30T17:28:22.233Z,0.70
2022-09-30T17:30:50.347Z,0.77
2022-09-30T17:33:19.888Z,0.40
2022-09-30T17:35:59.576Z,0.80
2022-09-30T17:38:26.394Z,0.60
2022-09-30T17:41:11.488Z,0.60
2022-09-30T17:43:38.059Z,0.70
2022-09-30T17:46:05.535Z,0.70
2022-09-30T17:48:33.031Z,0.73
2022-09-30T17:51:00.184Z,0.93
2022-09-30T17:53:29.397Z,0.60
2022-09-30T17:56:04.839Z,1.27
2022-09-30T17:58:31.433Z,1.23
2022-09-30T18:00:59.447Z,0.67
2022-09-30T18:03:28.242Z,1.87
2022-09-30T18:05:58.934Z,0.77
2022-09-30T18:08:26.372Z,0.70
2022-09-30T18:10:52.964Z,0.63
2022-09-30T18:13:19.654Z,0.70
2022-09-30T18:15:46.912Z,0.57
2022-09-30T18:18:14.110Z,0.70
2022-09-30T18:20:45.485Z,0.70
2022-09-30T18:23:12.512Z,0.83
2022-09-30T18:25:41.316Z,0.60
2022-09-30T18:28:09.477Z,0.60
2022-09-30T18:30:37.480Z,0.50
2022-09-30T18:33:07.170Z,0.50
2022-09-30T18:35:38.616Z,0.63
2022-09-30T18:38:06.887Z,0.57
2022-09-30T18:40:34.145Z,0.90
2022-09-30T18:43:05.404Z,0.60
2022-09-30T18:45:36.807Z,1.07
2022-09-30T18:48:04.048Z,0.60
2022-09-30T18:50:31.473Z,0.80
2022-09-30T18:52:58.455Z,0.60
2022-09-30T18:55:25.464Z,0.60
2022-09-30T18:57:56.133Z,0.87
2022-09-30T19:00:23.058Z,0.60
2022-09-30T19:02:52.022Z,0.63
2022-09-30T19:05:18.863Z,0.57
2022-09-30T19:07:45.406Z,0.57
2022-09-30T19:10:13.358Z,0.90
2022-09-30T19:12:44.652Z,0.90
2022-09-30T19:15:16.002Z,0.90
2022-09-30T19:17:43.745Z,1.20
2022-09-30T19:20:11.282Z,0.90
2022-09-30T19:22:37.909Z,0.83
2022-09-30T19:25:11.239Z,1.03
2022-09-30T19:27:41.013Z,0.70
2022-09-30T19:30:09.896Z,0.70
2022-09-30T19:32:36.797Z,0.40
2022-09-30T19:35:12.079Z,0.70
2022-09-30T19:37:42.989Z,0.60
2022-09-30T19:40:20.361Z,1.30
2022-09-30T19:42:49.660Z,0.80
2022-09-30T19:45:17.019Z,0.50
2022-09-30T19:47:44.618Z,0.70
2022-09-30T19:50:11.119Z,0.70
2022-09-30T19:52:46.308Z,0.57
2022-09-30T19:55:20.256Z,0.80
2022-09-30T19:57:46.916Z,0.80
2022-09-30T20:00:13.584Z,0.70
2022-09-30T20:02:40.231Z,0.87
2022-09-30T20:05:07.658Z,1.00
2022-09-30T20:07:35.264Z,0.47
2022-09-30T20:10:01.936Z,0.60
2022-09-30T20:12:29.268Z,0.60
2022-09-30T20:15:14.730Z,0.70
2022-09-30T20:17:41.366Z,0.60
2022-09-30T20:20:27.677Z,0.60
2022-09-30T20:22:54.245Z,0.53
2022-09-30T20:25:20.934Z,0.60
2022-09-30T20:27:51.351Z,0.90
2022-09-30T20:30:19.654Z,0.77
2022-09-30T20:32:46.267Z,0.57
2022-09-30T20:35:13.044Z,0.97
2022-09-30T20:37:40.943Z,0.33
2022-09-30T20:40:09.709Z,0.90
2022-09-30T20:42:38.505Z,0.80
2022-09-30T20:45:06.770Z,0.80
2022-09-30T20:47:33.430Z,0.87
2022-09-30T20:50:00.259Z,1.03
2022-09-30T20:52:28.879Z,0.60
2022-09-30T20:55:00.451Z,0.43
2022-09-30T20:57:31.610Z,0.60
2022-09-30T21:00:00.094Z,1.13
2022-09-30T21:02:28.097Z,0.83
2022-09-30T21:04:55.584Z,0.87
2022-09-30T21:07:22.278Z,0.70
2022-09-30T21:09:48.842Z,0.60
2022-09-30T21:12:17.011Z,0.80
2022-09-30T21:14:43.887Z,0.70
2022-09-30T21:17:10.871Z,0.73
2022-09-30T21:19:38.130Z,1.37
2022-09-30T21:22:05.001Z,0.80
2022-09-30T21:24:31.624Z,0.73
2022-09-30T21:26:58.184Z,0.80
2022-09-30T21:29:24.787Z,0.70
2022-09-30T21:31:51.437Z,1.00
2022-09-30T21:34:18.110Z,0.77
2022-09-30T21:36:45.387Z,1.03
2022-09-30T21:39:12.326Z,0.73
2022-09-30T21:41:40.665Z,0.93
2022-09-30T21:44:07.368Z,0.80
2022-09-30T21:46:35.730Z,0.63
2022-09-30T21:49:15.181Z,0.90
2022-09-30T21:51:41.870Z,1.00
2022-09-30T21:54:10.203Z,0.93
2022-09-30T21:56:37.170Z,0.70
2022-09-30T21:59:04.825Z,0.77
2022-09-30T22:01:32.396Z,0.87
2022-09-30T22:03:59.252Z,0.97
2022-09-30T22:06:26.065Z,1.00
2022-09-30T22:08:52.609Z,1.47
2022-09-30T22:11:25.141Z,0.83
2022-09-30T22:13:55.253Z,0.70
2022-09-30T22:16:27.357Z,1.00
2022-09-30T22:18:54.913Z,1.00
2022-09-30T22:21:21.932Z,1.23
2022-09-30T22:23:49.678Z,1.40
2022-09-30T22:26:19.039Z,1.33
2022-09-30T22:28:47.627Z,1.57
2022-09-30T22:31:29.145Z,1.10
2022-09-30T22:34:20.064Z,1.20
2022-09-30T22:37:06.188Z,1.23
2022-09-30T22:39:33.270Z,1.37
2022-09-30T22:42:00.333Z,1.40
2022-09-30T22:44:29.574Z,1.60
2022-09-30T22:46:58.159Z,1.13
2022-09-30T22:49:25.438Z,1.63
2022-09-30T22:51:55.890Z,1.40
2022-09-30T22:54:24.227Z,1.57
2022-09-30T22:56:51.149Z,1.53
2022-09-30T22:59:22.304Z,1.77
2022-09-30T23:01:49.348Z,1.97
2022-09-30T23:04:17.536Z,1.30
2022-09-30T23:06:48.362Z,1.33
2022-09-30T23:09:16.245Z,1.70
2022-09-30T23:11:43.237Z,2.07
2022-09-30T23:14:10.171Z,1.50
2022-09-30T23:16:36.890Z,1.70
2022-09-30T23:19:03.573Z,1.60
2022-09-30T23:21:30.241Z,1.60
2022-09-30T23:23:56.978Z,1.50
2022-09-30T23:26:26.137Z,1.57
2022-09-30T23:29:00.525Z,2.00
2022-09-30T23:31:28.190Z,2.20
2022-09-30T23:33:57.575Z,2.23
2022-09-30T23:36:30.130Z,1.80
2022-09-30T23:39:08.315Z,1.77
2022-09-30T23:41:35.514Z,1.77
2022-09-30T23:44:02.694Z,1.53
2022-09-30T23:46:29.331Z,1.40
2022-09-30T23:48:56.031Z,1.97
2022-09-30T23:51:22.606Z,1.20
2022-09-30T23:53:49.723Z,1.93
2022-09-30T23:56:17.964Z,1.83
2022-09-30T23:58:47.258Z,1.60
